createdAt,value
2018-12-29T00:00:10.191Z,924.86
2018-12-29T00:00:23.197Z,924.87
2018-12-29T00:00:36.206Z,924.81
2018-12-29T00:00:49.162Z,924.83
2018-12-29T00:01:02.099Z,924.82
2018-12-29T00:01:15.067Z,924.85
2018-12-29T00:01:28.046Z,924.83
2018-12-29T00:01:41.061Z,924.82
2018-12-29T00:01:54.038Z,924.79
2018-12-29T00:02:07.083Z,924.8
2018-12-29T00:02:20.060Z,924.8
2018-12-29T00:02:33.064Z,924.79
2018-12-29T00:02:45.991Z,924.76
2018-12-29T00:02:58.982Z,924.77
2018-12-29T00:03:11.527Z,924.73
2018-12-29T00:03:24.563Z,924.78
2018-12-29T00:03:37.570Z,924.76
2018-12-29T00:03:50.513Z,924.76
2018-12-29T00:04:03.505Z,924.76
2018-12-29T00:04:16.063Z,924.74
2018-12-29T00:04:29.027Z,924.78
2018-12-29T00:04:42.000Z,924.76
2018-12-29T00:04:54.999Z,924.76
2018-12-29T00:05:08.005Z,924.77
2018-12-29T00:05:20.995Z,924.74
2018-12-29T00:05:34.030Z,924.73
2018-12-29T00:05:47.009Z,924.74
2018-12-29T00:06:00.043Z,924.7
2018-12-29T00:06:13.066Z,924.72
2018-12-29T00:06:26.036Z,924.73
2018-12-29T00:06:39.024Z,924.72
2018-12-29T00:06:52.016Z,924.71
2018-12-29T00:07:05.847Z,924.73
2018-12-29T00:07:18.999Z,924.71
2018-12-29T00:07:32.020Z,924.69
2018-12-29T00:07:45.986Z,924.72
2018-12-29T00:07:58.988Z,924.68
2018-12-29T00:08:12.020Z,924.72
2018-12-29T00:08:24.974Z,924.71
2018-12-29T00:08:37.969Z,924.7
2018-12-29T00:08:51.041Z,924.68
2018-12-29T00:09:04.023Z,924.7
2018-12-29T00:09:17.016Z,924.67
2018-12-29T00:09:30.042Z,924.67
2018-12-29T00:09:42.981Z,924.66
2018-12-29T00:09:55.927Z,924.65
2018-12-29T00:10:08.898Z,924.68
2018-12-29T00:10:21.885Z,924.65
2018-12-29T00:10:34.905Z,924.68
2018-12-29T00:10:47.920Z,924.68
2018-12-29T00:11:00.901Z,924.66
2018-12-29T00:11:13.978Z,924.63
2018-12-29T00:11:26.913Z,924.63
2018-12-29T00:11:39.930Z,924.66
2018-12-29T00:11:52.937Z,924.65
2018-12-29T00:12:05.988Z,924.67
2018-12-29T00:12:18.997Z,924.7
2018-12-29T00:12:31.939Z,924.66
2018-12-29T00:12:45.245Z,924.68
2018-12-29T00:12:58.289Z,924.69
2018-12-29T00:13:11.388Z,924.68
2018-12-29T00:13:24.388Z,924.67
2018-12-29T00:13:36.928Z,924.72
2018-12-29T00:13:49.881Z,924.72
2018-12-29T00:14:02.886Z,924.7
2018-12-29T00:14:15.880Z,924.71
2018-12-29T00:14:28.864Z,924.69
2018-12-29T00:14:41.927Z,924.69
2018-12-29T00:15:02.070Z,924.72
2018-12-29T00:15:15.077Z,924.71
2018-12-29T00:15:28.045Z,924.74
2018-12-29T00:15:41.086Z,924.76
2018-12-29T00:15:54.206Z,924.76
2018-12-29T00:16:07.224Z,924.74
2018-12-29T00:16:20.304Z,924.75
2018-12-29T00:16:33.310Z,924.77
2018-12-29T00:16:46.257Z,924.78
2018-12-29T00:16:59.225Z,924.74
2018-12-29T00:17:12.209Z,924.78
2018-12-29T00:17:25.240Z,924.79
2018-12-29T00:17:38.194Z,924.76
2018-12-29T00:17:52.052Z,924.77
2018-12-29T00:18:05.062Z,924.78
2018-12-29T00:18:18.055Z,924.76
2018-12-29T00:18:31.029Z,924.75
2018-12-29T00:18:43.993Z,924.76
2018-12-29T00:18:57.039Z,924.77
2018-12-29T00:19:09.962Z,924.74
2018-12-29T00:19:22.938Z,924.77
2018-12-29T00:19:36.020Z,924.77
2018-12-29T00:19:49.057Z,924.74
2018-12-29T00:20:02.110Z,924.74
2018-12-29T00:20:15.185Z,924.73
2018-12-29T00:20:28.216Z,924.71
2018-12-29T00:20:41.147Z,924.73
2018-12-29T00:20:54.179Z,924.73
2018-12-29T00:21:07.123Z,924.72
2018-12-29T00:21:20.103Z,924.72
2018-12-29T00:21:33.190Z,924.72
2018-12-29T00:21:46.164Z,924.77
2018-12-29T00:21:59.113Z,924.72
2018-12-29T00:22:12.138Z,924.71
2018-12-29T00:22:25.185Z,924.76
2018-12-29T00:22:38.155Z,924.78
2018-12-29T00:22:51.782Z,924.75
2018-12-29T00:23:04.719Z,924.8
2018-12-29T00:23:17.691Z,924.79
2018-12-29T00:23:30.628Z,924.79
2018-12-29T00:23:43.650Z,924.81
2018-12-29T00:23:56.658Z,924.83
2018-12-29T00:24:09.629Z,924.81
2018-12-29T00:24:22.593Z,924.86
2018-12-29T00:24:35.581Z,924.81
2018-12-29T00:24:48.536Z,924.84
2018-12-29T00:25:01.543Z,924.8
2018-12-29T00:25:14.541Z,924.83
2018-12-29T00:25:27.487Z,924.85
2018-12-29T00:25:40.567Z,924.84
2018-12-29T00:25:53.596Z,924.85
2018-12-29T00:26:06.558Z,924.81
2018-12-29T00:26:19.093Z,924.84
2018-12-29T00:26:32.110Z,924.86
2018-12-29T00:26:45.136Z,924.92
2018-12-29T00:26:58.070Z,924.88
2018-12-29T00:27:11.030Z,924.86
2018-12-29T00:27:24.010Z,924.87
2018-12-29T00:27:36.962Z,924.93
2018-12-29T00:27:49.999Z,924.92
2018-12-29T00:28:03.047Z,924.89
2018-12-29T00:28:16.056Z,924.92
2018-12-29T00:28:29.051Z,924.94
2018-12-29T00:28:42.087Z,924.96
2018-12-29T00:28:55.057Z,924.92
2018-12-29T00:29:08.049Z,924.91
2018-12-29T00:29:21.029Z,924.96
2018-12-29T00:29:34.071Z,924.94
2018-12-29T00:29:47.128Z,924.96
2018-12-29T00:30:00.240Z,924.96
2018-12-29T00:30:13.217Z,924.95
2018-12-29T00:30:26.189Z,924.96
2018-12-29T00:30:39.193Z,924.87
2018-12-29T00:30:52.172Z,924.94
2018-12-29T00:31:05.173Z,924.96
2018-12-29T00:31:18.115Z,924.95
2018-12-29T00:31:31.134Z,924.93
2018-12-29T00:31:44.199Z,924.95
2018-12-29T00:31:57.184Z,924.93
2018-12-29T00:32:10.218Z,924.91
2018-12-29T00:32:23.240Z,924.9
2018-12-29T00:32:36.245Z,924.91
2018-12-29T00:32:49.161Z,924.91
2018-12-29T00:33:02.179Z,924.94
2018-12-29T00:33:15.165Z,924.91
2018-12-29T00:33:28.198Z,924.94
2018-12-29T00:33:41.180Z,924.9
2018-12-29T00:33:54.167Z,924.93
2018-12-29T00:34:07.174Z,924.93
2018-12-29T00:34:20.244Z,924.91
2018-12-29T00:34:33.235Z,924.92
2018-12-29T00:34:46.239Z,924.96
2018-12-29T00:34:59.189Z,924.92
2018-12-29T00:35:12.184Z,924.9
2018-12-29T00:35:25.234Z,924.92
2018-12-29T00:35:38.252Z,924.96
2018-12-29T00:35:51.234Z,924.94
2018-12-29T00:36:04.188Z,924.93
2018-12-29T00:36:17.465Z,924.94
2018-12-29T00:36:30.493Z,924.93
2018-12-29T00:36:43.530Z,924.95
2018-12-29T00:36:56.539Z,924.97
2018-12-29T00:37:09.506Z,924.93
2018-12-29T00:37:22.513Z,924.94
2018-12-29T00:37:35.483Z,924.96
2018-12-29T00:37:48.488Z,924.95
2018-12-29T00:38:02.580Z,924.98
2018-12-29T00:38:15.553Z,924.97
2018-12-29T00:38:28.576Z,924.98
2018-12-29T00:38:41.589Z,924.98
2018-12-29T00:38:54.565Z,924.98
2018-12-29T00:39:07.589Z,924.99
2018-12-29T00:39:20.569Z,925.02
2018-12-29T00:39:33.626Z,925
2018-12-29T00:39:46.631Z,925
2018-12-29T00:39:59.676Z,925.03
2018-12-29T00:40:12.692Z,925
2018-12-29T00:40:25.682Z,925
2018-12-29T00:40:38.741Z,925.04
2018-12-29T00:40:51.762Z,925
2018-12-29T00:41:04.763Z,925.03
2018-12-29T00:41:17.766Z,925.04
2018-12-29T00:41:30.765Z,925.04
2018-12-29T00:41:43.755Z,925.07
2018-12-29T00:41:56.786Z,925.07
2018-12-29T00:42:09.785Z,925.08
2018-12-29T00:42:22.782Z,925.07
2018-12-29T00:42:35.758Z,925.09
2018-12-29T00:42:48.800Z,925.12
2018-12-29T00:43:01.812Z,925.09
2018-12-29T00:43:14.844Z,925.09
2018-12-29T00:43:27.838Z,925.11
2018-12-29T00:43:40.807Z,925.12
2018-12-29T00:43:53.829Z,925.11
2018-12-29T00:44:06.749Z,925.11
2018-12-29T00:44:19.739Z,925.09
2018-12-29T00:44:32.742Z,925.13
2018-12-29T00:44:45.776Z,925.13
2018-12-29T00:45:03.762Z,925.12
2018-12-29T00:45:16.754Z,925.14
2018-12-29T00:45:29.788Z,925.13
2018-12-29T00:45:42.789Z,925.13
2018-12-29T00:45:55.843Z,925.11
2018-12-29T00:46:08.869Z,925.14
2018-12-29T00:46:21.903Z,925.15
2018-12-29T00:46:34.917Z,925.14
2018-12-29T00:46:47.941Z,925.15
2018-12-29T00:47:00.988Z,925.11
2018-12-29T00:47:13.981Z,925.12
2018-12-29T00:47:26.972Z,925.17
2018-12-29T00:47:39.902Z,925.12
2018-12-29T00:47:52.923Z,925.15
2018-12-29T00:48:05.422Z,925.13
2018-12-29T00:48:18.407Z,925.1
2018-12-29T00:48:31.453Z,925.11
2018-12-29T00:48:44.432Z,925.09
2018-12-29T00:48:57.442Z,925.09
2018-12-29T00:49:10.463Z,925.08
2018-12-29T00:49:22.952Z,925.11
2018-12-29T00:49:35.910Z,925.09
2018-12-29T00:49:48.806Z,925.12
2018-12-29T00:50:01.807Z,925.11
2018-12-29T00:50:14.759Z,925.1
2018-12-29T00:50:27.751Z,925.08
2018-12-29T00:50:40.772Z,925.11
2018-12-29T00:50:53.765Z,925.09
2018-12-29T00:51:06.789Z,925.09
2018-12-29T00:51:19.780Z,925.08
2018-12-29T00:51:32.736Z,925.12
2018-12-29T00:51:45.666Z,925.12
2018-12-29T00:51:58.653Z,925.09
2018-12-29T00:52:11.647Z,925.1
2018-12-29T00:52:24.622Z,925.13
2018-12-29T00:52:37.602Z,925.14
2018-12-29T00:52:50.630Z,925.11
2018-12-29T00:53:04.553Z,925.12
2018-12-29T00:53:17.540Z,925.15
2018-12-29T00:53:30.483Z,925.1
2018-12-29T00:53:43.497Z,925.12
2018-12-29T00:53:56.480Z,925.12
2018-12-29T00:54:09.480Z,925.13
2018-12-29T00:54:22.469Z,925.14
2018-12-29T00:54:36.551Z,925.11
2018-12-29T00:54:49.524Z,925.12
2018-12-29T00:55:02.476Z,925.15
2018-12-29T00:55:15.491Z,925.13
2018-12-29T00:55:28.485Z,925.12
2018-12-29T00:55:41.448Z,925.13
2018-12-29T00:55:54.384Z,925.11
2018-12-29T00:56:07.433Z,925.13
2018-12-29T00:56:20.462Z,925.12
2018-12-29T00:56:33.417Z,925.15
2018-12-29T00:56:46.451Z,925.13
2018-12-29T00:56:59.474Z,925.11
2018-12-29T00:57:12.499Z,925.13
2018-12-29T00:57:25.533Z,925.13
2018-12-29T00:57:38.557Z,925.14
2018-12-29T00:57:51.545Z,925.14
2018-12-29T00:58:04.464Z,925.1
2018-12-29T00:58:17.470Z,925.16
2018-12-29T00:58:30.439Z,925.15
2018-12-29T00:58:43.471Z,925.13
2018-12-29T00:58:56.478Z,925.17
2018-12-29T00:59:09.428Z,925.13
2018-12-29T00:59:22.438Z,925.12
2018-12-29T00:59:35.443Z,925.09
2018-12-29T00:59:48.454Z,925.11
2018-12-29T01:00:01.496Z,925.13
2018-12-29T01:00:14.497Z,925.14
2018-12-29T01:00:27.028Z,925.1
2018-12-29T01:00:40.055Z,925.11
2018-12-29T01:00:53.070Z,925.1
2018-12-29T01:01:06.040Z,925.13
2018-12-29T01:01:19.063Z,925.1
2018-12-29T01:01:32.048Z,925.09
2018-12-29T01:01:45.067Z,925.13
2018-12-29T01:01:58.118Z,925.12
2018-12-29T01:02:11.129Z,925.12
2018-12-29T01:02:24.127Z,925.13
2018-12-29T01:02:37.136Z,925.13
2018-12-29T01:02:49.717Z,925.15
2018-12-29T01:03:02.724Z,925.1
2018-12-29T01:03:15.310Z,925.14
2018-12-29T01:03:28.340Z,925.13
2018-12-29T01:03:41.337Z,925.14
2018-12-29T01:03:54.324Z,925.1
2018-12-29T01:04:07.355Z,925.14
2018-12-29T01:04:20.287Z,925.14
2018-12-29T01:04:33.283Z,925.11
2018-12-29T01:04:45.892Z,925.11
2018-12-29T01:04:58.482Z,925.17
2018-12-29T01:05:11.523Z,925.15
2018-12-29T01:05:24.568Z,925.12
2018-12-29T01:05:37.571Z,925.12
2018-12-29T01:05:50.598Z,925.15
2018-12-29T01:06:03.613Z,925.14
2018-12-29T01:06:16.618Z,925.14
2018-12-29T01:06:29.628Z,925.18
2018-12-29T01:06:42.670Z,925.11
2018-12-29T01:06:55.706Z,925.09
2018-12-29T01:07:08.662Z,925.13
2018-12-29T01:07:21.653Z,925.13
2018-12-29T01:07:34.677Z,925.12
2018-12-29T01:07:47.714Z,925.11
2018-12-29T01:08:00.750Z,925.14
2018-12-29T01:08:14.675Z,925.12
2018-12-29T01:08:27.691Z,925.15
2018-12-29T01:08:40.701Z,925.14
2018-12-29T01:08:53.726Z,925.16
2018-12-29T01:09:06.851Z,925.1
2018-12-29T01:09:19.888Z,925.12
2018-12-29T01:09:32.869Z,925.14
2018-12-29T01:09:45.436Z,925.17
2018-12-29T01:09:58.436Z,925.15
2018-12-29T01:10:11.451Z,925.16
2018-12-29T01:10:24.423Z,925.12
2018-12-29T01:10:37.402Z,925.09
2018-12-29T01:10:50.442Z,925.13
2018-12-29T01:11:03.466Z,925.12
2018-12-29T01:11:16.430Z,925.13
2018-12-29T01:11:29.463Z,925.1
2018-12-29T01:11:42.420Z,925.08
2018-12-29T01:11:54.947Z,925.08
2018-12-29T01:12:07.929Z,925.12
2018-12-29T01:12:20.927Z,925.08
2018-12-29T01:12:33.913Z,925.11
2018-12-29T01:12:46.937Z,925.1
2018-12-29T01:12:59.939Z,925.09
2018-12-29T01:13:13.293Z,925.1
2018-12-29T01:13:26.232Z,925.04
2018-12-29T01:13:39.207Z,925.05
2018-12-29T01:13:52.173Z,925.08
2018-12-29T01:14:06.671Z,925.01
2018-12-29T01:14:19.717Z,924.99
2018-12-29T01:14:32.681Z,925.01
2018-12-29T01:14:45.691Z,924.99
2018-12-29T01:14:58.708Z,924.99
2018-12-29T01:15:17.098Z,924.98
2018-12-29T01:15:30.039Z,925
2018-12-29T01:15:42.985Z,924.96
2018-12-29T01:15:55.961Z,924.95
2018-12-29T01:16:08.933Z,924.98
2018-12-29T01:16:21.891Z,924.97
2018-12-29T01:16:34.851Z,924.94
2018-12-29T01:16:47.806Z,924.9
2018-12-29T01:17:00.782Z,924.95
2018-12-29T01:17:13.792Z,924.9
2018-12-29T01:17:26.771Z,924.93
2018-12-29T01:17:39.732Z,924.91
2018-12-29T01:17:52.699Z,924.9
2018-12-29T01:18:05.776Z,924.91
2018-12-29T01:18:18.801Z,924.91
2018-12-29T01:18:31.726Z,924.9
2018-12-29T01:18:44.709Z,924.88
2018-12-29T01:18:57.736Z,924.89
2018-12-29T01:19:10.712Z,924.9
2018-12-29T01:19:23.697Z,924.87
2018-12-29T01:19:36.643Z,924.85
2018-12-29T01:19:49.655Z,924.9
2018-12-29T01:20:02.595Z,924.9
2018-12-29T01:20:15.573Z,924.9
2018-12-29T01:20:28.601Z,924.87
2018-12-29T01:20:41.608Z,924.9
2018-12-29T01:20:54.577Z,924.84
2018-12-29T01:21:07.523Z,924.88
2018-12-29T01:21:20.501Z,924.88
2018-12-29T01:21:33.474Z,924.86
2018-12-29T01:21:46.508Z,924.88
2018-12-29T01:21:59.484Z,924.87
2018-12-29T01:22:12.473Z,924.89
2018-12-29T01:22:25.472Z,924.83
2018-12-29T01:22:38.439Z,924.88
2018-12-29T01:22:51.542Z,924.88
2018-12-29T01:23:04.586Z,924.86
2018-12-29T01:23:18.435Z,924.86
2018-12-29T01:23:31.427Z,924.88
2018-12-29T01:23:44.388Z,924.87
2018-12-29T01:23:56.971Z,924.89
2018-12-29T01:24:10.000Z,924.86
2018-12-29T01:24:23.006Z,924.88
2018-12-29T01:24:35.983Z,924.84
2018-12-29T01:24:49.007Z,924.86
2018-12-29T01:25:02.083Z,924.87
2018-12-29T01:25:15.045Z,924.85
2018-12-29T01:25:27.983Z,924.85
2018-12-29T01:25:40.955Z,924.87
2018-12-29T01:25:53.954Z,924.86
2018-12-29T01:26:06.979Z,924.84
2018-12-29T01:26:20.007Z,924.81
2018-12-29T01:26:32.956Z,924.81
2018-12-29T01:26:45.975Z,924.84
2018-12-29T01:26:58.948Z,924.85
2018-12-29T01:27:11.884Z,924.83
2018-12-29T01:27:24.882Z,924.83
2018-12-29T01:27:37.896Z,924.83
2018-12-29T01:27:50.896Z,924.82
2018-12-29T01:28:03.872Z,924.84
2018-12-29T01:28:16.865Z,924.8
2018-12-29T01:28:30.640Z,924.83
2018-12-29T01:28:43.579Z,924.87
2018-12-29T01:28:56.614Z,924.85
2018-12-29T01:29:09.570Z,924.86
2018-12-29T01:29:22.559Z,924.83
2018-12-29T01:29:35.581Z,924.83
2018-12-29T01:29:48.524Z,924.82
2018-12-29T01:30:01.536Z,924.8
2018-12-29T01:30:14.508Z,924.82
2018-12-29T01:30:27.541Z,924.83
2018-12-29T01:30:40.545Z,924.84
2018-12-29T01:30:53.451Z,924.83
2018-12-29T01:31:06.415Z,924.82
2018-12-29T01:31:19.394Z,924.86
2018-12-29T01:31:32.405Z,924.85
2018-12-29T01:31:45.325Z,924.84
2018-12-29T01:31:58.274Z,924.83
2018-12-29T01:32:11.283Z,924.85
2018-12-29T01:32:24.265Z,924.85
2018-12-29T01:32:37.216Z,924.84
2018-12-29T01:32:50.195Z,924.9
2018-12-29T01:33:02.761Z,924.87
2018-12-29T01:33:15.381Z,924.9
2018-12-29T01:33:28.403Z,924.86
2018-12-29T01:33:41.328Z,924.87
2018-12-29T01:33:54.313Z,924.9
2018-12-29T01:34:06.883Z,924.89
2018-12-29T01:34:19.859Z,924.89
2018-12-29T01:34:32.924Z,924.89
2018-12-29T01:34:45.964Z,924.88
2018-12-29T01:34:58.994Z,924.91
2018-12-29T01:35:11.971Z,924.92
2018-12-29T01:35:24.922Z,924.89
2018-12-29T01:35:37.929Z,924.93
2018-12-29T01:35:50.854Z,924.92
2018-12-29T01:36:03.365Z,924.9
2018-12-29T01:36:16.511Z,924.94
2018-12-29T01:36:29.483Z,924.91
2018-12-29T01:36:42.426Z,924.92
2018-12-29T01:36:55.428Z,924.95
2018-12-29T01:37:08.382Z,924.92
2018-12-29T01:37:21.468Z,924.92
2018-12-29T01:37:34.460Z,924.95
2018-12-29T01:37:47.452Z,924.9
2018-12-29T01:38:00.374Z,924.93
2018-12-29T01:38:13.383Z,924.95
2018-12-29T01:38:27.306Z,924.92
2018-12-29T01:38:40.346Z,924.94
2018-12-29T01:38:53.319Z,924.94
2018-12-29T01:39:06.295Z,924.95
2018-12-29T01:39:19.222Z,924.93
2018-12-29T01:39:32.159Z,924.93
2018-12-29T01:39:45.159Z,924.92
2018-12-29T01:39:58.181Z,924.94
2018-12-29T01:40:11.164Z,924.93
2018-12-29T01:40:24.162Z,924.95
2018-12-29T01:40:37.133Z,924.93
2018-12-29T01:40:50.076Z,924.97
2018-12-29T01:41:03.076Z,924.96
2018-12-29T01:41:16.094Z,924.95
2018-12-29T01:41:29.047Z,924.95
2018-12-29T01:41:42.061Z,924.96
2018-12-29T01:41:55.040Z,924.96
2018-12-29T01:42:08.005Z,924.95
2018-12-29T01:42:20.978Z,924.93
2018-12-29T01:42:33.966Z,924.91
2018-12-29T01:42:46.960Z,924.94
2018-12-29T01:42:59.868Z,924.93
2018-12-29T01:43:12.827Z,924.91
2018-12-29T01:43:25.746Z,924.93
2018-12-29T01:43:38.765Z,924.91
2018-12-29T01:43:51.817Z,924.9
2018-12-29T01:44:04.879Z,924.91
2018-12-29T01:44:17.870Z,924.89
2018-12-29T01:44:30.805Z,924.87
2018-12-29T01:44:43.746Z,924.89
2018-12-29T01:44:56.681Z,924.87
2018-12-29T01:45:09.156Z,924.85
2018-12-29T01:45:27.624Z,924.84
2018-12-29T01:45:40.660Z,924.84
2018-12-29T01:45:53.628Z,924.85
2018-12-29T01:46:06.643Z,924.83
2018-12-29T01:46:19.701Z,924.85
2018-12-29T01:46:32.664Z,924.82
2018-12-29T01:46:45.668Z,924.83
2018-12-29T01:46:58.642Z,924.8
2018-12-29T01:47:11.622Z,924.8
2018-12-29T01:47:24.544Z,924.82
2018-12-29T01:47:37.564Z,924.82
2018-12-29T01:47:51.090Z,924.78
2018-12-29T01:48:04.048Z,924.8
2018-12-29T01:48:17.011Z,924.76
2018-12-29T01:48:30.008Z,924.78
2018-12-29T01:48:42.981Z,924.8
2018-12-29T01:48:56.006Z,924.77
2018-12-29T01:49:09.028Z,924.78
2018-12-29T01:49:21.577Z,924.79
2018-12-29T01:49:34.516Z,924.78
2018-12-29T01:49:47.526Z,924.77
2018-12-29T01:50:00.492Z,924.79
2018-12-29T01:50:13.529Z,924.75
2018-12-29T01:50:26.499Z,924.78
2018-12-29T01:50:39.486Z,924.76
2018-12-29T01:50:52.510Z,924.73
2018-12-29T01:51:05.514Z,924.78
2018-12-29T01:51:18.503Z,924.75
2018-12-29T01:51:31.585Z,924.77
2018-12-29T01:51:44.598Z,924.76
2018-12-29T01:51:57.538Z,924.77
2018-12-29T01:52:10.564Z,924.77
2018-12-29T01:52:23.562Z,924.78
2018-12-29T01:52:36.545Z,924.79
2018-12-29T01:52:49.548Z,924.76
2018-12-29T01:53:02.593Z,924.77
2018-12-29T01:53:15.561Z,924.75
2018-12-29T01:53:29.473Z,924.75
2018-12-29T01:53:42.454Z,924.75
2018-12-29T01:53:55.438Z,924.76
2018-12-29T01:54:08.479Z,924.76
2018-12-29T01:54:21.425Z,924.75
2018-12-29T01:54:34.419Z,924.82
2018-12-29T01:54:47.432Z,924.78
2018-12-29T01:55:00.403Z,924.8
2018-12-29T01:55:13.490Z,924.82
2018-12-29T01:55:26.482Z,924.83
2018-12-29T01:55:39.446Z,924.81
2018-12-29T01:55:52.511Z,924.82
2018-12-29T01:56:05.533Z,924.84
2018-12-29T01:56:18.519Z,924.82
2018-12-29T01:56:31.548Z,924.89
2018-12-29T01:56:44.516Z,924.8
2018-12-29T01:56:57.529Z,924.87
2018-12-29T01:57:10.506Z,924.83
2018-12-29T01:57:23.513Z,924.84
2018-12-29T01:57:36.500Z,924.87
2018-12-29T01:57:49.472Z,924.85
2018-12-29T01:58:02.411Z,924.85
2018-12-29T01:58:15.384Z,924.83
2018-12-29T01:58:28.305Z,924.85
2018-12-29T01:58:41.337Z,924.88
2018-12-29T01:58:54.329Z,924.87
2018-12-29T01:59:07.346Z,924.86
2018-12-29T01:59:20.376Z,924.87
2018-12-29T01:59:33.329Z,924.87
2018-12-29T01:59:46.402Z,924.9
2018-12-29T01:59:59.498Z,924.89
2018-12-29T02:00:12.490Z,924.89
2018-12-29T02:00:24.985Z,924.91
2018-12-29T02:00:38.045Z,924.89
2018-12-29T02:00:51.037Z,924.91
2018-12-29T02:01:04.053Z,924.91
2018-12-29T02:01:17.094Z,924.88
2018-12-29T02:01:30.056Z,924.9
2018-12-29T02:01:43.045Z,924.92
2018-12-29T02:01:56.053Z,924.91
2018-12-29T02:02:09.084Z,924.9
2018-12-29T02:02:22.079Z,924.9
2018-12-29T02:02:35.074Z,924.92
2018-12-29T02:02:48.076Z,924.9
2018-12-29T02:03:01.056Z,924.94
2018-12-29T02:03:14.005Z,924.89
2018-12-29T02:03:26.999Z,924.9
2018-12-29T02:03:39.958Z,924.9
2018-12-29T02:03:52.917Z,924.91
2018-12-29T02:04:05.923Z,924.9
2018-12-29T02:04:18.971Z,924.91
2018-12-29T02:04:32.093Z,924.89
2018-12-29T02:04:45.042Z,924.91
2018-12-29T02:04:58.059Z,924.9
2018-12-29T02:05:11.093Z,924.84
2018-12-29T02:05:23.985Z,924.87
2018-12-29T02:05:36.950Z,924.86
2018-12-29T02:05:49.916Z,924.86
2018-12-29T02:06:02.932Z,924.84
2018-12-29T02:06:15.884Z,924.83
2018-12-29T02:06:28.842Z,924.82
2018-12-29T02:06:41.821Z,924.84
2018-12-29T02:06:54.832Z,924.84
2018-12-29T02:07:07.777Z,924.81
2018-12-29T02:07:20.807Z,924.81
2018-12-29T02:07:33.847Z,924.8
2018-12-29T02:07:46.788Z,924.78
2018-12-29T02:07:59.767Z,924.78
2018-12-29T02:08:12.805Z,924.75
2018-12-29T02:08:25.778Z,924.78
2018-12-29T02:08:39.929Z,924.73
2018-12-29T02:08:52.948Z,924.76
2018-12-29T02:09:05.475Z,924.73
2018-12-29T02:09:18.431Z,924.7
2018-12-29T02:09:31.472Z,924.75
2018-12-29T02:09:44.521Z,924.73
2018-12-29T02:09:57.535Z,924.68
2018-12-29T02:10:10.467Z,924.67
2018-12-29T02:10:23.479Z,924.7
2018-12-29T02:10:36.520Z,924.66
2018-12-29T02:10:49.536Z,924.66
2018-12-29T02:11:02.529Z,924.64
2018-12-29T02:11:15.527Z,924.67
2018-12-29T02:11:28.528Z,924.65
2018-12-29T02:11:41.460Z,924.64
2018-12-29T02:11:54.443Z,924.65
2018-12-29T02:12:07.376Z,924.64
2018-12-29T02:12:20.393Z,924.63
2018-12-29T02:12:32.936Z,924.65
2018-12-29T02:12:45.914Z,924.64
2018-12-29T02:12:58.951Z,924.63
2018-12-29T02:13:11.961Z,924.65
2018-12-29T02:13:24.892Z,924.64
2018-12-29T02:13:38.214Z,924.63
2018-12-29T02:13:51.193Z,924.6
2018-12-29T02:14:04.165Z,924.63
2018-12-29T02:14:17.231Z,924.62
2018-12-29T02:14:30.239Z,924.61
2018-12-29T02:14:43.206Z,924.6
2018-12-29T02:14:56.178Z,924.62
2018-12-29T02:15:09.127Z,924.62
2018-12-29T02:15:28.759Z,924.59
2018-12-29T02:15:41.724Z,924.59
2018-12-29T02:15:54.696Z,924.57
2018-12-29T02:16:07.705Z,924.58
2018-12-29T02:16:20.748Z,924.61
2018-12-29T02:16:33.714Z,924.55
2018-12-29T02:16:46.672Z,924.58
2018-12-29T02:16:59.677Z,924.58
2018-12-29T02:17:12.670Z,924.58
2018-12-29T02:17:25.690Z,924.58
2018-12-29T02:17:38.685Z,924.53
2018-12-29T02:17:51.687Z,924.57
2018-12-29T02:18:04.693Z,924.59
2018-12-29T02:18:17.679Z,924.54
2018-12-29T02:18:30.622Z,924.55
2018-12-29T02:18:43.697Z,924.56
2018-12-29T02:18:56.709Z,924.56
2018-12-29T02:19:09.681Z,924.55
2018-12-29T02:19:22.622Z,924.55
2018-12-29T02:19:35.585Z,924.55
2018-12-29T02:19:48.627Z,924.56
2018-12-29T02:20:01.631Z,924.55
2018-12-29T02:20:14.634Z,924.59
2018-12-29T02:20:27.640Z,924.55
2018-12-29T02:20:40.665Z,924.52
2018-12-29T02:20:53.628Z,924.55
2018-12-29T02:21:06.707Z,924.55
2018-12-29T02:21:19.272Z,924.54
2018-12-29T02:21:32.271Z,924.54
2018-12-29T02:21:45.285Z,924.56
2018-12-29T02:21:58.276Z,924.55
2018-12-29T02:22:11.289Z,924.55
2018-12-29T02:22:24.239Z,924.56
2018-12-29T02:22:37.239Z,924.57
2018-12-29T02:22:50.178Z,924.55
2018-12-29T02:23:03.218Z,924.54
2018-12-29T02:23:16.148Z,924.56
2018-12-29T02:23:29.141Z,924.55
2018-12-29T02:23:43.308Z,924.55
2018-12-29T02:23:56.260Z,924.55
2018-12-29T02:24:09.230Z,924.54
2018-12-29T02:24:22.256Z,924.53
2018-12-29T02:24:35.259Z,924.55
2018-12-29T02:24:48.241Z,924.55
2018-12-29T02:25:01.273Z,924.57
2018-12-29T02:25:13.826Z,924.57
2018-12-29T02:25:26.317Z,924.58
2018-12-29T02:25:39.316Z,924.58
2018-12-29T02:25:52.318Z,924.58
2018-12-29T02:26:05.290Z,924.58
2018-12-29T02:26:18.330Z,924.59
2018-12-29T02:26:31.304Z,924.56
2018-12-29T02:26:44.355Z,924.58
2018-12-29T02:26:57.310Z,924.57
2018-12-29T02:27:10.307Z,924.56
2018-12-29T02:27:23.271Z,924.57
2018-12-29T02:27:36.263Z,924.57
2018-12-29T02:27:49.236Z,924.57
2018-12-29T02:28:02.212Z,924.55
2018-12-29T02:28:14.760Z,924.57
2018-12-29T02:28:27.797Z,924.59
2018-12-29T02:28:40.864Z,924.55
2018-12-29T02:28:53.445Z,924.57
2018-12-29T02:29:06.432Z,924.58
2018-12-29T02:29:19.392Z,924.57
2018-12-29T02:29:32.431Z,924.58
2018-12-29T02:29:45.459Z,924.56
2018-12-29T02:29:58.450Z,924.58
2018-12-29T02:30:11.452Z,924.57
2018-12-29T02:30:24.461Z,924.53
2018-12-29T02:30:37.560Z,924.58
2018-12-29T02:30:50.589Z,924.59
2018-12-29T02:31:03.568Z,924.55
2018-12-29T02:31:16.519Z,924.56
2018-12-29T02:31:29.568Z,924.58
2018-12-29T02:31:42.613Z,924.55
2018-12-29T02:31:55.620Z,924.55
2018-12-29T02:32:08.542Z,924.57
2018-12-29T02:32:21.536Z,924.57
2018-12-29T02:32:34.507Z,924.54
2018-12-29T02:32:47.558Z,924.51
2018-12-29T02:33:00.617Z,924.53
2018-12-29T02:33:13.596Z,924.52
2018-12-29T02:33:26.599Z,924.52
2018-12-29T02:33:39.571Z,924.54
2018-12-29T02:33:52.642Z,924.55
2018-12-29T02:34:05.622Z,924.52
2018-12-29T02:34:18.666Z,924.53
2018-12-29T02:34:31.692Z,924.54
2018-12-29T02:34:44.802Z,924.53
2018-12-29T02:34:57.827Z,924.54
2018-12-29T02:35:10.754Z,924.52
2018-12-29T02:35:23.724Z,924.53
2018-12-29T02:35:36.775Z,924.55
2018-12-29T02:35:49.754Z,924.52
2018-12-29T02:36:02.856Z,924.53
2018-12-29T02:36:15.915Z,924.56
2018-12-29T02:36:29.024Z,924.54
2018-12-29T02:36:41.974Z,924.56
2018-12-29T02:36:54.996Z,924.53
2018-12-29T02:37:07.969Z,924.55
2018-12-29T02:37:20.933Z,924.53
2018-12-29T02:37:33.952Z,924.52
2018-12-29T02:37:46.864Z,924.55
2018-12-29T02:37:59.877Z,924.53
2018-12-29T02:38:12.395Z,924.5
2018-12-29T02:38:24.838Z,924.53
2018-12-29T02:38:37.842Z,924.55
2018-12-29T02:38:51.473Z,924.51
2018-12-29T02:39:04.439Z,924.48
2018-12-29T02:39:17.423Z,924.54
2018-12-29T02:39:30.455Z,924.46
2018-12-29T02:39:43.400Z,924.47
2018-12-29T02:39:56.379Z,924.48
2018-12-29T02:40:09.397Z,924.47
2018-12-29T02:40:22.446Z,924.46
2018-12-29T02:40:35.387Z,924.47
2018-12-29T02:40:48.368Z,924.46
2018-12-29T02:41:01.395Z,924.46
2018-12-29T02:41:14.344Z,924.47
2018-12-29T02:41:27.315Z,924.45
2018-12-29T02:41:40.357Z,924.42
2018-12-29T02:41:53.346Z,924.44
2018-12-29T02:42:06.336Z,924.45
2018-12-29T02:42:19.333Z,924.41
2018-12-29T02:42:32.381Z,924.42
2018-12-29T02:42:45.351Z,924.44
2018-12-29T02:42:58.301Z,924.43
2018-12-29T02:43:11.341Z,924.39
2018-12-29T02:43:24.282Z,924.4